Time;durP1;ratioP1;P1;durP2;ratioP2;P2;SDS_P1;SDS_P2;PMS_P1;PMS_P2;Temp;Humidity;BMP_temperature;BMP_pressure;BME280_temperature;BME280_humidity;BME280_pressure;Samples;Min_cycle;Max_cycle;Signal;HPM_P1;HPM_P2
2021/11/07 00:00:56;;;;;;;10.73;6.53;;;10.00;99.90;;;;;;5010913;28;20390;-60
2021/11/07 00:03:27;;;;;;;7.18;5.50;;;10.00;99.90;;;;;;5004199;28;20038;-60
2021/11/07 00:13:51;;;;;;;6.53;5.88;;;9.90;99.90;;;;;;5009140;28;20514;-60
2021/11/07 00:16:23;;;;;;;6.57;5.90;;;9.90;99.90;;;;;;5004150;28;20367;-60
2021/11/07 00:19:04;;;;;;;6.18;5.50;;;9.90;99.90;;;;;;5009442;28;20497;-60
2021/11/07 00:21:32;;;;;;;6.00;5.40;;;9.90;99.90;;;;;;5010699;28;20073;-60
2021/11/07 00:24:08;;;;;;;6.82;5.22;;;9.90;99.90;;;;;;5010406;28;20053;-60
2021/11/07 00:26:50;;;;;;;9.63;5.63;;;9.90;99.90;;;;;;5010657;28;20022;-60
2021/11/07 00:29:20;;;;;;;7.80;5.50;;;9.90;99.90;;;;;;5009382;28;20029;-60
2021/11/07 00:37:13;;;;;;;6.63;5.35;;;10.00;99.90;;;;;;5009420;28;20493;-60
2021/11/07 00:42:36;;;;;;;6.88;5.85;;;10.00;99.90;;;;;;5009367;28;20038;-60
2021/11/07 00:45:12;;;;;;;6.82;5.90;;;10.00;99.90;;;;;;5003411;28;20033;-60
2021/11/07 00:47:44;;;;;;;6.38;5.78;;;10.00;99.90;;;;;;5010723;28;20108;-60
2021/11/07 00:50:16;;;;;;;6.43;5.75;;;10.00;99.90;;;;;;5008740;28;20029;-60
2021/11/07 00:52:55;;;;;;;8.13;6.40;;;10.00;99.90;;;;;;4992238;28;20052;-60
2021/11/07 00:55:35;;;;;;;6.95;6.35;;;10.00;99.90;;;;;;5010024;28;20026;-60
2021/11/07 01:03:01;;;;;;;8.50;6.78;;;10.00;99.90;;;;;;4992595;28;20049;-60
2021/11/07 01:05:29;;;;;;;8.05;7.35;;;10.00;99.90;;;;;;5010117;28;20041;-60
2021/11/07 01:07:55;;;;;;;7.63;6.72;;;10.10;99.90;;;;;;4993012;28;20025;-60
2021/11/07 01:10:23;;;;;;;9.27;7.43;;;10.10;99.90;;;;;;5011660;28;20089;-60
2021/11/07 01:12:49;;;;;;;9.55;7.75;;;10.10;99.90;;;;;;5013932;28;20105;-60
2021/11/07 01:15:15;;;;;;;8.98;8.13;;;10.10;99.90;;;;;;5013976;28;20018;-60
2021/11/07 01:17:41;;;;;;;9.80;8.77;;;10.10;99.90;;;;;;5013628;28;20080;-60
2021/11/07 01:20:09;;;;;;;9.95;8.95;;;10.10;99.90;;;;;;5013907;28;20422;-60
2021/11/07 01:22:50;;;;;;;11.52;8.90;;;10.20;99.90;;;;;;5013919;28;20026;-60
2021/11/07 01:25:16;;;;;;;11.18;9.20;;;10.20;99.90;;;;;;5013599;28;20052;-60
2021/11/07 01:27:43;;;;;;;12.63;11.32;;;10.20;99.90;;;;;;5013375;28;20026;-60
2021/11/07 01:30:16;;;;;;;11.40;10.10;;;10.20;99.90;;;;;;4990639;28;20054;-60
2021/11/07 01:32:49;;;;;;;12.88;11.18;;;10.20;99.90;;;;;;4989560;28;20079;-60
2021/11/07 01:37:53;;;;;;;12.23;10.98;;;10.20;99.90;;;;;;5013193;28;20128;-60
2021/11/07 01:40:23;;;;;;;13.07;11.77;;;10.30;99.90;;;;;;5013622;28;20113;-60
2021/11/07 01:42:56;;;;;;;18.15;13.02;;;10.20;99.90;;;;;;4995770;28;20053;-60
2021/11/07 01:45:26;;;;;;;19.05;13.43;;;10.30;99.90;;;;;;5013389;28;20084;-60
2021/11/07 01:48:02;;;;;;;15.15;13.60;;;10.30;99.90;;;;;;5013570;28;20084;-60
2021/11/07 01:50:27;;;;;;;15.48;13.25;;;10.30;99.90;;;;;;4994005;28;20032;-60
2021/11/07 01:53:02;;;;;;;15.77;14.07;;;10.30;99.90;;;;;;5013128;28;20025;-60
2021/11/07 01:55:28;;;;;;;16.50;14.40;;;10.30;99.90;;;;;;5012975;28;20101;-60
2021/11/07 01:57:54;;;;;;;17.42;15.52;;;10.40;99.90;;;;;;4995717;28;20125;-60
2021/11/07 02:00:25;;;;;;;20.33;16.45;;;10.40;99.90;;;;;;5013097;28;20549;-60
2021/11/07 02:02:51;;;;;;;18.15;16.33;;;10.40;99.90;;;;;;5012954;28;20057;-60
2021/11/07 02:05:17;;;;;;;17.83;16.05;;;10.40;99.90;;;;;;5013222;28;20030;-60
2021/11/07 02:07:43;;;;;;;19.52;16.70;;;10.40;99.90;;;;;;4995324;28;20128;-60
2021/11/07 02:10:12;;;;;;;20.95;16.80;;;10.40;99.90;;;;;;4991125;28;20129;-60
2021/11/07 02:12:40;;;;;;;18.63;16.52;;;10.50;99.90;;;;;;5012788;28;20064;-60
2021/11/07 02:15:08;;;;;;;20.45;18.45;;;10.50;99.90;;;;;;5012372;28;20071;-60
2021/11/07 02:17:34;;;;;;;19.38;17.33;;;10.50;99.90;;;;;;5011009;28;20030;-60
2021/11/07 02:20:03;;;;;;;23.42;17.85;;;10.50;99.90;;;;;;5008163;28;20370;-60
2021/11/07 02:22:30;;;;;;;22.27;17.52;;;10.50;99.90;;;;;;5010340;28;20026;-60
2021/11/07 02:24:55;;;;;;;18.85;16.85;;;10.50;99.90;;;;;;5012497;28;20030;-61
2021/11/07 02:27:22;;;;;;;22.52;18.20;;;10.50;99.90;;;;;;5012298;28;20160;-60
2021/11/07 02:29:47;;;;;;;20.10;17.85;;;10.60;99.90;;;;;;5012790;28;20044;-60
2021/11/07 02:32:13;;;;;;;19.48;16.92;;;10.60;99.90;;;;;;5012611;28;20113;-60
2021/11/07 02:34:38;;;;;;;25.95;19.20;;;10.60;99.90;;;;;;5012375;28;20034;-60
2021/11/07 02:37:04;;;;;;;22.05;18.92;;;10.60;99.90;;;;;;4994580;28;20029;-60
2021/11/07 02:39:30;;;;;;;21.08;18.02;;;10.60;99.90;;;;;;5012398;28;20038;-60
2021/11/07 02:41:56;;;;;;;24.55;18.48;;;10.70;99.90;;;;;;5012591;28;20033;-60
2021/11/07 02:44:27;;;;;;;24.42;19.73;;;10.60;99.90;;;;;;5011961;28;20478;-61
2021/11/07 02:46:52;;;;;;;23.15;19.48;;;10.70;99.90;;;;;;5012227;28;20532;-60
2021/11/07 02:49:19;;;;;;;24.30;20.08;;;10.60;99.90;;;;;;5012510;28;20037;-60
2021/11/07 02:51:44;;;;;;;24.65;20.30;;;10.70;99.90;;;;;;5011945;28;20390;-60
2021/11/07 02:54:10;;;;;;;23.38;19.33;;;10.70;99.90;;;;;;5012044;28;20029;-59
2021/11/07 02:56:36;;;;;;;22.73;20.33;;;10.70;99.90;;;;;;5011784;28;20505;-60
2021/11/07 02:59:04;;;;;;;25.38;21.65;;;10.70;99.90;;;;;;5011864;28;20123;-59
2021/11/07 03:01:31;;;;;;;25.85;21.15;;;10.70;99.90;;;;;;4994089;28;20030;-60
2021/11/07 03:04:04;;;;;;;26.75;21.00;;;10.70;99.90;;;;;;5010883;28;20080;-60
2021/11/07 03:06:31;;;;;;;28.10;24.35;;;10.70;99.90;;;;;;5012014;28;21502;-60
2021/11/07 03:08:57;;;;;;;24.67;21.92;;;10.70;99.90;;;;;;4994442;28;20022;-60
2021/11/07 03:11:23;;;;;;;29.15;23.83;;;10.70;99.90;;;;;;5011621;28;20485;-60
2021/11/07 03:13:48;;;;;;;30.25;22.40;;;10.70;99.90;;;;;;5009343;28;20073;-60
2021/11/07 03:16:14;;;;;;;26.90;23.15;;;10.70;99.90;;;;;;5011615;28;20109;-60
2021/11/07 03:18:41;;;;;;;28.08;22.05;;;10.70;99.90;;;;;;5011729;28;20030;-60
2021/11/07 03:21:08;;;;;;;24.23;21.63;;;10.80;99.90;;;;;;4993685;28;20025;-60
2021/11/07 03:23:37;;;;;;;25.88;22.30;;;10.80;99.90;;;;;;5011470;28;20025;-60
2021/11/07 03:26:09;;;;;;;27.95;21.27;;;10.80;99.90;;;;;;5011257;28;20058;-60
2021/11/07 03:28:35;;;;;;;27.83;22.67;;;10.80;99.90;;;;;;5011545;28;20533;-61
2021/11/07 03:33:30;;;;;;;28.73;25.17;;;10.90;99.90;;;;;;5010123;28;20474;-60
2021/11/07 03:35:58;;;;;;;27.08;22.73;;;10.90;99.90;;;;;;5010643;28;20042;-61
2021/11/07 03:38:24;;;;;;;28.35;23.25;;;10.90;99.90;;;;;;5009879;28;20578;-61
2021/11/07 03:40:50;;;;;;;28.02;22.67;;;10.90;99.90;;;;;;5010563;28;20105;-61
2021/11/07 03:43:16;;;;;;;26.27;22.65;;;11.00;99.90;;;;;;5004078;28;20018;-61
2021/11/07 03:45:42;;;;;;;30.50;24.02;;;11.00;99.90;;;;;;5010975;28;20164;-60
2021/11/07 03:48:08;;;;;;;31.10;23.95;;;11.00;99.90;;;;;;5011318;28;20105;-61
2021/11/07 03:50:34;;;;;;;28.85;24.45;;;11.00;99.90;;;;;;5011078;28;20030;-61
2021/11/07 03:52:59;;;;;;;33.60;25.67;;;11.00;99.90;;;;;;5011004;28;20030;-61
2021/11/07 03:55:26;;;;;;;30.67;24.92;;;11.00;99.90;;;;;;5010695;28;20018;-61
2021/11/07 03:57:52;;;;;;;28.20;23.90;;;11.00;99.90;;;;;;5010994;28;20505;-61
2021/11/07 04:00:20;;;;;;;29.63;25.23;;;11.00;99.90;;;;;;5010959;28;20022;-61
2021/11/07 04:02:47;;;;;;;30.95;25.75;;;11.00;99.90;;;;;;5010604;28;20088;-61
2021/11/07 04:05:14;;;;;;;30.48;25.67;;;11.00;99.90;;;;;;5011186;28;20046;-61
2021/11/07 04:07:40;;;;;;;34.20;25.70;;;11.00;99.90;;;;;;5011011;28;20421;-61
2021/11/07 04:10:08;;;;;;;33.65;26.17;;;11.00;99.90;;;;;;4992147;28;20034;-60
2021/11/07 04:12:34;;;;;;;36.65;27.85;;;11.00;99.90;;;;;;5010779;28;20050;-61
2021/11/07 04:15:00;;;;;;;36.92;26.75;;;11.00;99.90;;;;;;5010702;28;20033;-61
2021/11/07 04:17:25;;;;;;;31.02;26.83;;;11.00;99.90;;;;;;5010179;28;20100;-61
2021/11/07 04:19:51;;;;;;;35.20;27.58;;;11.00;99.90;;;;;;5010874;28;20474;-61
2021/11/07 04:22:17;;;;;;;36.95;28.77;;;11.00;99.90;;;;;;5010767;28;20068;-61
2021/11/07 04:24:43;;;;;;;38.10;31.67;;;11.00;99.90;;;;;;4990522;28;20084;-61
2021/11/07 04:27:08;;;;;;;32.78;27.67;;;11.00;99.90;;;;;;5005179;28;20027;-60
2021/11/07 04:29:34;;;;;;;33.17;26.80;;;11.00;99.90;;;;;;5004400;28;20434;-60
2021/11/07 04:32:00;;;;;;;35.03;25.38;;;11.10;99.90;;;;;;5010506;28;20029;-61
2021/11/07 04:34:27;;;;;;;29.52;26.15;;;11.10;99.90;;;;;;5010368;28;20038;-61
2021/11/07 04:36:53;;;;;;;32.90;25.90;;;11.10;99.90;;;;;;5010276;28;20049;-61
2021/11/07 04:39:20;;;;;;;29.50;22.75;;;11.10;99.90;;;;;;4992564;28;20037;-61
2021/11/07 04:41:46;;;;;;;27.30;20.92;;;11.20;99.90;;;;;;5010333;28;20022;-61
2021/11/07 04:44:12;;;;;;;27.02;19.73;;;11.20;99.90;;;;;;5009916;28;20468;-61
2021/11/07 04:46:38;;;;;;;25.90;18.88;;;11.20;99.90;;;;;;4992656;28;20537;-61
2021/11/07 04:49:04;;;;;;;23.55;16.92;;;11.30;99.90;;;;;;5004077;28;20108;-61
2021/11/07 04:51:30;;;;;;;24.80;16.20;;;11.30;99.90;;;;;;4992341;28;20046;-61
2021/11/07 04:53:55;;;;;;;26.10;14.65;;;11.30;99.90;;;;;;5010140;28;20030;-61
2021/11/07 04:56:21;;;;;;;20.58;15.70;;;11.40;99.90;;;;;;5010180;28;20476;-61
2021/11/07 04:58:46;;;;;;;22.77;15.20;;;11.30;99.90;;;;;;5009725;28;20026;-61
2021/11/07 05:01:12;;;;;;;20.42;14.32;;;11.40;99.90;;;;;;5010053;28;20030;-61
2021/11/07 05:03:38;;;;;;;25.60;16.08;;;11.40;99.90;;;;;;5010068;28;20576;-61
2021/11/07 05:06:04;;;;;;;24.08;15.95;;;11.30;99.90;;;;;;5009714;28;20108;-61
2021/11/07 05:08:29;;;;;;;23.33;14.43;;;11.30;99.90;;;;;;4991708;28;20120;-61
2021/11/07 05:10:55;;;;;;;21.08;12.68;;;11.30;99.90;;;;;;5005217;28;20033;-61
2021/11/07 05:13:21;;;;;;;18.40;11.82;;;11.30;99.90;;;;;;5010035;28;20030;-61
2021/11/07 05:15:47;;;;;;;17.30;11.68;;;11.30;99.90;;;;;;5009704;28;20497;-61
2021/11/07 05:18:13;;;;;;;16.30;10.25;;;11.30;99.90;;;;;;5008245;28;20478;-61
2021/11/07 05:20:39;;;;;;;16.95;9.77;;;11.30;99.90;;;;;;5009193;28;20045;-61
2021/11/07 05:23:04;;;;;;;15.27;7.43;;;11.30;99.90;;;;;;5009079;28;20033;-61
2021/11/07 05:25:30;;;;;;;16.52;7.70;;;11.30;99.90;;;;;;5007053;28;20450;-61
2021/11/07 05:27:55;;;;;;;13.52;6.38;;;11.30;99.90;;;;;;4989438;28;20121;-61
2021/11/07 05:30:21;;;;;;;11.52;5.57;;;11.30;99.90;;;;;;4992522;28;20061;-61
2021/11/07 05:32:48;;;;;;;17.17;7.50;;;11.30;99.90;;;;;;5009041;28;20033;-61
2021/11/07 05:35:19;;;;;;;12.85;6.95;;;11.30;99.90;;;;;;5008233;28;20042;-61
2021/11/07 05:37:45;;;;;;;11.18;6.65;;;11.30;99.90;;;;;;5009445;28;20490;-61
2021/11/07 05:40:11;;;;;;;14.93;6.75;;;11.30;99.90;;;;;;5009051;28;20061;-61
2021/11/07 05:42:37;;;;;;;14.05;6.88;;;11.40;99.90;;;;;;5008872;28;20022;-61
2021/11/07 05:45:04;;;;;;;13.77;6.25;;;11.30;99.90;;;;;;5007739;28;20041;-61
2021/11/07 05:47:30;;;;;;;12.85;5.75;;;11.30;99.90;;;;;;5007958;28;20042;-61
2021/11/07 05:49:56;;;;;;;13.57;6.35;;;11.40;99.90;;;;;;5009596;28;20022;-61
2021/11/07 05:52:22;;;;;;;11.02;5.60;;;11.40;99.90;;;;;;5007999;28;21157;-61
2021/11/07 05:54:47;;;;;;;11.27;5.75;;;11.40;99.90;;;;;;5008970;28;20433;-61
2021/11/07 05:57:13;;;;;;;13.48;5.03;;;11.40;99.90;;;;;;5012781;28;20036;-61
2021/11/07 05:59:39;;;;;;;11.80;4.65;;;11.30;99.90;;;;;;5012727;28;20422;-61
2021/11/07 06:02:05;;;;;;;9.63;3.65;;;11.30;99.90;;;;;;5013049;28;20494;-61
2021/11/07 06:04:31;;;;;;;13.80;4.68;;;11.40;99.90;;;;;;5010731;28;20029;-61
2021/11/07 06:06:57;;;;;;;10.32;3.25;;;11.30;99.90;;;;;;5012810;28;20088;-61
2021/11/07 06:09:22;;;;;;;6.55;3.20;;;11.30;99.90;;;;;;4994440;28;20512;-62
2021/11/07 06:11:48;;;;;;;11.20;3.58;;;11.30;99.90;;;;;;4999309;28;20034;-61
2021/11/07 06:14:14;;;;;;;10.23;3.10;;;11.30;99.90;;;;;;5007434;28;20022;-61
2021/11/07 06:16:40;;;;;;;13.88;3.45;;;11.30;99.90;;;;;;5012691;28;20026;-61
2021/11/07 06:19:06;;;;;;;9.73;2.65;;;11.30;99.90;;;;;;5012672;28;20026;-61
2021/11/07 06:21:33;;;;;;;8.57;2.22;;;11.20;99.90;;;;;;5011240;28;20093;-61
2021/11/07 06:23:59;;;;;;;7.38;2.50;;;11.20;99.90;;;;;;5010520;28;20072;-61
2021/11/07 06:26:25;;;;;;;9.80;1.98;;;11.20;99.90;;;;;;5012615;28;20501;-61
2021/11/07 06:28:52;;;;;;;10.95;3.25;;;11.20;99.90;;;;;;5010413;28;20034;-61
2021/11/07 06:31:23;;;;;;;8.55;2.25;;;11.20;99.90;;;;;;5010522;28;20512;-61
2021/11/07 06:33:49;;;;;;;10.05;2.25;;;11.20;99.90;;;;;;5005473;28;20030;-61
2021/11/07 06:36:16;;;;;;;9.10;1.83;;;11.20;99.90;;;;;;5013919;28;20076;-61
2021/11/07 06:38:41;;;;;;;10.63;2.40;;;11.20;99.90;;;;;;5005777;28;20026;-61
2021/11/07 06:41:07;;;;;;;7.68;1.73;;;11.20;99.90;;;;;;5010986;28;20605;-61
2021/11/07 06:43:33;;;;;;;10.73;2.60;;;11.10;99.90;;;;;;5009583;28;20572;-61
2021/11/07 06:45:58;;;;;;;8.93;2.00;;;11.10;99.90;;;;;;5013158;28;20032;-61
2021/11/07 06:48:24;;;;;;;13.45;3.60;;;11.10;99.90;;;;;;5013903;28;20053;-61
2021/11/07 06:50:50;;;;;;;13.93;2.40;;;11.10;99.90;;;;;;5008059;28;20026;-61
2021/11/07 06:53:17;;;;;;;6.38;1.33;;;11.10;99.90;;;;;;5011413;28;20026;-61
2021/11/07 06:55:42;;;;;;;6.68;2.25;;;11.10;99.90;;;;;;5009835;28;20073;-61
2021/11/07 06:58:08;;;;;;;10.43;1.60;;;11.10;99.90;;;;;;5010598;28;20409;-61
2021/11/07 07:00:34;;;;;;;11.75;2.05;;;11.10;99.90;;;;;;5009289;28;20033;-61
2021/11/07 07:03:00;;;;;;;12.32;1.80;;;11.10;99.90;;;;;;5012541;28;20073;-61
2021/11/07 07:05:25;;;;;;;10.13;1.92;;;11.10;99.90;;;;;;5010478;28;20049;-61
2021/11/07 07:07:54;;;;;;;9.15;2.13;;;11.10;99.90;;;;;;5012849;28;20041;-61
2021/11/07 07:10:31;;;;;;;11.90;2.50;;;11.10;99.90;;;;;;5012881;28;20022;-61
2021/11/07 07:15:36;;;;;;;10.55;2.17;;;11.00;99.90;;;;;;5012587;28;20030;-61
2021/11/07 07:18:52;;;;;;;10.75;2.33;;;11.00;99.90;;;;;;5009460;28;20079;-61
2021/11/07 07:21:14;;;;;;;14.23;2.83;;;11.00;99.90;;;;;;4995172;28;20045;-61
2021/11/07 07:24:10;;;;;;;7.20;1.70;;;11.00;99.90;;;;;;5009239;28;20490;-61
2021/11/07 07:32:10;;;;;;;11.45;2.00;;;11.00;99.80;;;;;;5013303;28;20108;-61
2021/11/07 07:34:37;;;;;;;12.00;2.08;;;10.90;99.70;;;;;;5010528;28;20072;-61
2021/11/07 07:37:03;;;;;;;11.18;2.50;;;10.90;99.70;;;;;;5011037;28;20036;-61
2021/11/07 07:39:52;;;;;;;;;;;;;;;;;;;;;
2021/11/07 07:42:17;;;;;;;10.23;1.83;;;11.00;99.50;;;;;;5007858;28;20028;-61
2021/11/07 07:44:44;;;;;;;9.40;1.85;;;11.00;99.50;;;;;;5011271;28;20385;-61
2021/11/07 07:47:10;;;;;;;7.90;1.77;;;11.00;99.50;;;;;;4993057;28;20034;-61
2021/11/07 07:49:36;;;;;;;8.95;1.83;;;11.00;99.40;;;;;;5011057;28;20030;-61
2021/11/07 07:52:02;;;;;;;14.57;2.33;;;11.00;99.30;;;;;;5010923;28;20030;-61
2021/11/07 07:54:27;;;;;;;12.13;2.72;;;11.00;99.20;;;;;;5011709;28;20033;-61
2021/11/07 07:56:53;;;;;;;12.88;1.95;;;11.00;99.10;;;;;;4994784;28;20045;-61
2021/11/07 07:59:19;;;;;;;7.70;1.40;;;11.00;99.00;;;;;;5012868;28;20049;-61
2021/11/07 08:01:47;;;;;;;10.13;2.10;;;11.00;99.00;;;;;;5010055;28;20080;-61
2021/11/07 08:04:13;;;;;;;7.05;2.15;;;11.00;98.90;;;;;;4990897;28;20118;-61
2021/11/07 08:06:39;;;;;;;19.30;2.67;;;11.00;98.80;;;;;;4975619;28;20121;-61
2021/11/07 08:09:04;;;;;;;14.15;4.10;;;11.00;98.50;;;;;;4992267;28;20038;-61
2021/11/07 08:11:43;;;;;;;;;;;;;;;;;;;;;
2021/11/07 08:14:08;;;;;;;11.98;2.40;;;11.00;98.30;;;;;;4989306;28;20026;-61
2021/11/07 08:16:35;;;;;;;12.40;2.60;;;11.00;98.20;;;;;;4973763;28;20113;-61
2021/11/07 08:19:11;;;;;;;9.98;1.80;;;11.00;98.10;;;;;;4990391;28;20014;-61
2021/11/07 08:21:38;;;;;;;12.35;2.33;;;11.10;98.20;;;;;;4973835;28;20071;-61
2021/11/07 08:24:20;;;;;;;;;;;;;;;;;;;;;
2021/11/07 08:26:55;;;;;;;13.20;2.88;;;11.20;97.70;;;;;;4990542;28;20525;-61
2021/11/07 08:29:20;;;;;;;12.20;2.60;;;11.30;97.40;;;;;;4992318;28;20034;-61
2021/11/07 08:31:50;;;;;;;13.80;2.50;;;11.20;97.30;;;;;;4991501;28;20037;-61
2021/11/07 08:40:17;;;;;;;12.68;2.08;;;11.20;97.20;;;;;;4992721;28;20022;-61
2021/11/07 09:04:40;;;;;;;14.15;3.03;;;11.50;96.60;;;;;;4974505;28;20035;-61
2021/11/07 09:07:17;;;;;;;12.68;2.75;;;11.60;96.50;;;;;;4989708;28;20033;-61
2021/11/07 09:09:44;;;;;;;7.57;1.30;;;11.80;96.40;;;;;;4976040;28;20031;-61
2021/11/07 09:12:10;;;;;;;13.95;2.10;;;12.00;96.20;;;;;;4988385;28;20582;-61
2021/11/07 09:14:38;;;;;;;6.88;2.35;;;12.00;95.70;;;;;;4990822;28;20105;-61
2021/11/07 09:17:07;;;;;;;12.30;2.38;;;12.00;95.50;;;;;;4990430;28;20398;-61
2021/11/07 09:19:36;;;;;;;14.75;3.65;;;12.00;95.40;;;;;;4990518;28;20022;-61
2021/11/07 09:25:08;;;;;;;10.15;2.22;;;12.10;95.10;;;;;;4989235;28;20398;-61
2021/11/07 09:27:44;;;;;;;15.90;2.63;;;12.10;95.10;;;;;;4990125;28;20113;-61
2021/11/07 09:35:49;;;;;;;9.10;2.03;;;12.20;94.90;;;;;;4973781;28;20049;-61
2021/11/07 09:38:23;;;;;;;12.45;2.33;;;12.30;95.00;;;;;;4994118;28;20026;-61
2021/11/07 09:41:07;;;;;;;12.98;2.50;;;12.50;94.70;;;;;;4976736;28;20105;-61
2021/11/07 09:43:41;;;;;;;9.85;2.00;;;12.60;94.30;;;;;;4993125;28;20023;-61
2021/11/07 09:49:15;;;;;;;11.80;2.05;;;12.70;94.00;;;;;;4992245;28;20043;-61
2021/11/07 09:51:49;;;;;;;11.30;2.83;;;12.70;93.90;;;;;;4975773;28;20030;-61
2021/11/07 09:54:18;;;;;;;13.90;2.33;;;12.70;93.70;;;;;;4993863;28;20069;-61
2021/11/07 09:56:54;;;;;;;12.20;2.77;;;12.80;93.70;;;;;;4994097;28;20018;-62
2021/11/07 10:03:31;;;;;;;10.00;2.17;;;13.00;93.30;;;;;;4987963;28;20046;-61
2021/11/07 10:05:57;;;;;;;11.68;2.00;;;13.00;93.20;;;;;;4992226;28;20034;-61
2021/11/07 10:08:25;;;;;;;9.27;1.33;;;13.00;93.30;;;;;;4993219;28;20490;-61
2021/11/07 10:11:02;;;;;;;9.82;1.77;;;13.20;93.30;;;;;;4994859;28;20041;-61
2021/11/07 10:16:57;;;;;;;7.50;1.55;;;13.40;92.80;;;;;;4946324;28;20030;-62
2021/11/07 10:21:54;;;;;;;8.25;1.42;;;15.00;92.30;;;;;;4993526;28;20022;-61
2021/11/07 10:24:35;;;;;;;10.80;2.40;;;15.70;91.10;;;;;;4975687;28;20033;-61
2021/11/07 10:27:04;;;;;;;8.60;1.77;;;16.00;89.60;;;;;;4993120;28;20030;-61
2021/11/07 10:29:34;;;;;;;;;;;15.80;88.20;;;;;;4993661;28;20030;-61
2021/11/07 10:32:16;;;;;;;6.82;1.55;;;16.10;88.60;;;;;;4993179;28;19909;-61
2021/11/07 10:36:09;;;;;;;13.57;2.30;;;17.50;87.40;;;;;;4993129;28;20410;-62
2021/11/07 10:37:58;;;;;;;11.93;2.33;;;19.10;81.00;;;;;;4978549;28;20070;-61
2021/11/07 10:40:36;;;;;;;9.90;2.03;;;20.10;71.50;;;;;;4993307;28;20081;-61
2021/11/07 10:54:25;;;;;;;8.52;1.73;;;21.30;64.00;;;;;;4991608;28;20570;-62
2021/11/07 10:57:20;;;;;;;9.27;2.22;;;21.60;63.40;;;;;;4993777;28;20114;-62
2021/11/07 11:00:43;;;;;;;8.35;2.55;;;21.90;61.10;;;;;;4994270;28;20023;-63
2021/11/07 11:07:11;;;;;;;7.28;1.80;;;24.20;58.40;;;;;;4964028;28;20104;-62
2021/11/07 11:17:09;;;;;;;7.43;2.10;;;28.10;48.20;;;;;;4919378;29;20487;-62
2021/11/07 11:25:04;;;;;;;6.68;1.60;;;30.30;43.90;;;;;;4968039;28;20030;-62
2021/11/07 11:36:24;;;;;;;10.00;2.40;;;32.00;38.80;;;;;;4993637;28;20018;-62
2021/11/07 11:38:59;;;;;;;9.02;2.15;;;31.10;38.90;;;;;;4993353;28;20037;-62
2021/11/07 11:41:39;;;;;;;7.30;2.00;;;30.40;39.60;;;;;;4975874;28;20113;-62
2021/11/07 11:44:06;;;;;;;9.05;2.65;;;30.30;40.50;;;;;;4993427;28;20561;-62
2021/11/07 11:47:03;;;;;;;8.32;2.53;;;30.90;39.60;;;;;;4991764;28;20061;-62
2021/11/07 11:54:57;;;;;;;8.43;2.15;;;32.60;37.00;;;;;;4988798;28;20486;-62
2021/11/07 11:57:52;;;;;;;5.80;2.00;;;32.70;37.10;;;;;;4974080;28;20038;-63
2021/11/07 12:03:08;;;;;;;11.80;2.13;;;33.00;36.10;;;;;;5002165;28;20037;-63
2021/11/07 12:05:50;;;;;;;8.60;2.35;;;32.70;36.70;;;;;;4995082;28;20025;-62
2021/11/07 12:11:33;;;;;;;6.75;1.95;;;30.40;38.40;;;;;;4999523;28;20022;-62
2021/11/07 12:14:52;;;;;;;;;;;;;;;;;;;;;
2021/11/07 12:18:07;;;;;;;9.38;2.88;;;27.50;40.90;;;;;;5006287;28;20026;-63
2021/11/07 12:20:37;;;;;;;5.88;1.90;;;27.70;41.80;;;;;;4947992;28;21102;-62
2021/11/07 12:26:30;;;;;;;7.35;1.85;;;29.90;39.20;;;;;;4998777;28;20038;-63
2021/11/07 12:28:58;;;;;;;8.38;2.22;;;29.50;39.00;;;;;;5009922;28;20018;-62
2021/11/07 12:31:24;;;;;;;11.88;2.60;;;29.10;38.90;;;;;;5010352;28;20451;-62
2021/11/07 12:42:17;;;;;;;10.07;2.75;;;25.00;41.50;;;;;;4991255;28;20041;-62
2021/11/07 12:44:47;;;;;;;9.35;2.60;;;23.60;43.90;;;;;;5002123;28;20026;-62
2021/11/07 12:47:14;;;;;;;9.95;2.95;;;22.50;46.10;;;;;;5008768;28;20501;-62
2021/11/07 12:49:40;;;;;;;10.93;2.53;;;21.50;48.60;;;;;;4996529;28;20045;-62
2021/11/07 12:52:05;;;;;;;8.70;2.42;;;20.90;50.40;;;;;;5008991;28;20533;-62
2021/11/07 12:54:40;;;;;;;10.93;2.88;;;20.40;51.50;;;;;;5007947;28;20113;-62
2021/11/07 12:57:06;;;;;;;10.70;2.90;;;19.80;52.90;;;;;;5005846;28;20482;-62
2021/11/07 12:59:35;;;;;;;11.60;2.10;;;19.40;54.20;;;;;;5010856;28;20382;-62
2021/11/07 13:02:22;;;;;;;11.30;2.65;;;19.00;55.50;;;;;;5009595;28;20034;-62
2021/11/07 13:04:51;;;;;;;11.80;2.35;;;18.60;56.80;;;;;;4991037;28;20034;-61
2021/11/07 13:07:23;;;;;;;10.63;1.85;;;18.30;57.70;;;;;;5012926;28;20112;-62
2021/11/07 13:09:58;;;;;;;10.35;2.50;;;18.00;58.40;;;;;;5014646;28;20478;-61
2021/11/07 13:12:29;;;;;;;11.10;2.92;;;17.60;59.30;;;;;;5015325;28;20026;-61
2021/11/07 13:15:24;;;;;;;9.60;2.13;;;17.40;61.60;;;;;;5012103;28;20478;-61
2021/11/07 13:20:50;;;;;;;11.00;2.13;;;16.80;63.00;;;;;;5005670;28;20033;-62
2021/11/07 13:32:01;;;;;;;8.45;1.80;;;16.00;67.00;;;;;;5010359;28;20466;-61
2021/11/07 13:34:29;;;;;;;10.65;2.72;;;15.90;67.20;;;;;;5005433;28;20032;-62
2021/11/07 13:36:57;;;;;;;9.80;2.08;;;15.80;68.20;;;;;;5014224;28;20094;-62
2021/11/07 13:39:30;;;;;;;8.38;1.80;;;15.60;68.40;;;;;;4996814;28;20046;-61
2021/11/07 13:42:02;;;;;;;7.68;1.70;;;15.50;68.40;;;;;;5010991;28;20020;-62
2021/11/07 13:44:54;;;;;;;;;;;;;;;;;;;;;
2021/11/07 13:47:30;;;;;;;15.43;2.33;;;15.30;69.20;;;;;;5009534;28;20034;-62
2021/11/07 13:49:55;;;;;;;10.50;1.92;;;15.10;70.10;;;;;;5013453;28;20401;-61
2021/11/07 13:52:21;;;;;;;11.88;3.20;;;14.90;70.30;;;;;;5011248;28;20807;-62
2021/11/07 13:54:47;;;;;;;6.22;1.73;;;14.70;71.80;;;;;;4995736;28;20100;-61
2021/11/07 13:57:13;;;;;;;7.22;1.60;;;14.50;71.70;;;;;;5013098;28;20536;-61
2021/11/07 14:00:34;;;;;;;6.30;1.70;;;14.20;71.90;;;;;;4996376;28;20021;-61
2021/11/07 14:03:41;;;;;;;8.68;1.83;;;14.20;72.10;;;;;;5006021;28;20104;-61
2021/11/07 14:06:12;;;;;;;6.00;1.38;;;15.00;70.70;;;;;;4954073;28;20039;-61
2021/11/07 14:08:49;;;;;;;7.53;1.30;;;15.20;69.80;;;;;;4952227;28;20373;-61
2021/11/07 14:11:28;;;;;;;8.43;1.58;;;15.60;69.60;;;;;;4980186;28;20478;-61
2021/11/07 14:13:57;;;;;;;8.98;2.30;;;15.80;68.50;;;;;;5000397;28;20398;-61
2021/11/07 14:16:45;;;;;;;9.73;2.92;;;16.40;67.70;;;;;;5011649;28;20046;-62
2021/11/07 14:19:12;;;;;;;8.07;2.70;;;17.10;66.30;;;;;;5010318;28;20026;-62
2021/11/07 14:21:56;;;;;;;8.55;2.28;;;17.60;64.70;;;;;;5006435;28;20030;-62
2021/11/07 14:24:27;;;;;;;11.90;3.10;;;18.00;63.70;;;;;;4995934;28;20026;-62
2021/11/07 14:34:45;;;;;;;9.88;2.33;;;16.60;64.60;;;;;;4994217;28;20133;-61
2021/11/07 14:43:35;;;;;;;11.10;3.70;;;15.20;69.70;;;;;;5004767;28;20553;-61
2021/11/07 14:51:44;;;;;;;14.35;3.00;;;14.30;72.00;;;;;;4993176;28;20109;-61
2021/11/07 14:57:46;;;;;;;9.30;2.05;;;14.50;72.20;;;;;;4959462;28;20088;-62
2021/11/07 15:03:01;;;;;;;9.30;1.90;;;14.60;71.60;;;;;;4975223;28;20095;-61
2021/11/07 15:08:29;;;;;;;12.80;2.60;;;14.20;72.40;;;;;;5012544;28;20022;-61
2021/11/07 15:22:23;;;;;;;11.32;2.10;;;13.20;76.00;;;;;;4986532;28;20045;-61
2021/11/07 15:24:54;;;;;;;13.00;2.60;;;13.10;76.90;;;;;;5005632;28;20018;-61
2021/11/07 15:27:27;;;;;;;9.38;1.85;;;13.00;77.40;;;;;;5012407;28;20029;-61
2021/11/07 15:30:05;;;;;;;12.07;2.70;;;12.90;77.60;;;;;;5005561;28;20037;-61
2021/11/07 15:32:37;;;;;;;10.73;2.35;;;12.80;78.70;;;;;;5011976;28;20022;-61
2021/11/07 15:35:18;;;;;;;12.90;3.75;;;12.70;79.30;;;;;;4995816;28;20161;-61
2021/11/07 15:37:44;;;;;;;12.80;3.92;;;12.70;79.70;;;;;;5012836;28;20363;-62
2021/11/07 15:40:10;;;;;;;28.02;14.65;;;12.60;80.70;;;;;;4994791;28;20025;-61
2021/11/07 15:42:38;;;;;;;28.23;12.23;;;12.60;80.60;;;;;;5011382;28;20034;-61
2021/11/07 15:45:59;;;;;;;18.65;7.57;;;12.50;80.60;;;;;;5009086;28;20030;-61
2021/11/07 15:48:31;;;;;;;14.10;3.88;;;12.50;80.60;;;;;;5011801;28;20018;-61
2021/11/07 15:51:10;;;;;;;11.65;2.72;;;12.40;81.40;;;;;;5012681;28;20030;-61
2021/11/07 15:56:21;;;;;;;14.20;3.47;;;12.20;82.20;;;;;;5010181;28;20041;-61
2021/11/07 15:59:05;;;;;;;10.43;2.17;;;12.20;82.50;;;;;;5005229;28;20022;-61
2021/11/07 16:01:48;;;;;;;12.38;2.85;;;12.10;83.00;;;;;;5012658;28;20033;-61
2021/11/07 16:07:00;;;;;;;11.93;2.08;;;12.00;83.70;;;;;;5010193;28;20026;-62
2021/11/07 16:12:29;;;;;;;7.57;1.15;;;11.80;84.10;;;;;;5011999;28;20053;-61
2021/11/07 16:17:23;;;;;;;8.70;1.58;;;11.70;85.00;;;;;;5010812;28;20507;-61
2021/11/07 16:19:51;;;;;;;7.65;1.52;;;11.70;84.40;;;;;;5003558;28;20434;-61
2021/11/07 16:22:17;;;;;;;12.88;2.08;;;11.70;84.50;;;;;;5000141;28;20026;-61
2021/11/07 16:24:43;;;;;;;11.60;2.50;;;11.60;84.70;;;;;;5005449;28;20033;-61
2021/11/07 16:27:11;;;;;;;15.85;2.65;;;11.60;85.30;;;;;;5012562;28;20029;-61